sensor_id;sensor_type;location;lat;lon;timestamp;pressure;altitude;pressure_sealevel;temperature;humidity
7297;BME280;40758;54.038;11.684;2023-01-31T00:00:18;100926.91;;;2.85;100.00
7297;BME280;40758;54.038;11.684;2023-01-31T00:02:47;100922.75;;;2.79;100.00
7297;BME280;40758;54.038;11.684;2023-01-31T00:05:16;100933.94;;;2.86;100.00
7297;BME280;40758;54.038;11.684;2023-01-31T00:07:46;100941.56;;;2.75;100.00
7297;BME280;40758;54.038;11.684;2023-01-31T00:10:15;100945.88;;;2.77;100.00
7297;BME280;40758;54.038;11.684;2023-01-31T00:12:43;100951.16;;;2.77;100.00
7297;BME280;40758;54.038;11.684;2023-01-31T00:15:12;100942.25;;;2.78;100.00
7297;BME280;40758;54.038;11.684;2023-01-31T00:17:42;100938.97;;;2.73;100.00
7297;BME280;40758;54.038;11.684;2023-01-31T00:20:12;100936.38;;;2.72;100.00
7297;BME280;40758;54.038;11.684;2023-01-31T00:22:41;100945.28;;;2.71;100.00
7297;BME280;40758;54.038;11.684;2023-01-31T00:25:09;100947.28;;;2.66;100.00
7297;BME280;40758;54.038;11.684;2023-01-31T00:27:37;100949.72;;;2.70;100.00
7297;BME280;40758;54.038;11.684;2023-01-31T00:30:08;100932.09;;;2.69;100.00
7297;BME280;40758;54.038;11.684;2023-01-31T00:32:36;100951.38;;;2.73;100.00
7297;BME280;40758;54.038;11.684;2023-01-31T00:35:05;100938.09;;;2.73;100.00
7297;BME280;40758;54.038;11.684;2023-01-31T00:37:35;100935.38;;;2.74;100.00
7297;BME280;40758;54.038;11.684;2023-01-31T00:40:05;100947.72;;;2.75;100.00
7297;BME280;40758;54.038;11.684;2023-01-31T00:42:34;100951.00;;;2.80;100.00
7297;BME280;40758;54.038;11.684;2023-01-31T00:45:03;100941.63;;;2.73;100.00
7297;BME280;40758;54.038;11.684;2023-01-31T00:47:32;100949.88;;;2.67;100.00
7297;BME280;40758;54.038;11.684;2023-01-31T00:50:01;100939.25;;;2.67;100.00
7297;BME280;40758;54.038;11.684;2023-01-31T00:52:29;100951.81;;;2.64;100.00
7297;BME280;40758;54.038;11.684;2023-01-31T00:54:59;100964.06;;;2.66;100.00
7297;BME280;40758;54.038;11.684;2023-01-31T00:57:28;100976.38;;;2.67;100.00
7297;BME280;40758;54.038;11.684;2023-01-31T00:59:56;100983.72;;;2.62;100.00
7297;BME280;40758;54.038;11.684;2023-01-31T01:02:24;100980.78;;;2.68;100.00
7297;BME280;40758;54.038;11.684;2023-01-31T01:04:53;100991.72;;;2.61;100.00
7297;BME280;40758;54.038;11.684;2023-01-31T01:07:21;100992.47;;;2.64;100.00
7297;BME280;40758;54.038;11.684;2023-01-31T01:09:49;100999.22;;;2.71;100.00
7297;BME280;40758;54.038;11.684;2023-01-31T01:12:19;101003.56;;;2.72;100.00
7297;BME280;40758;54.038;11.684;2023-01-31T01:14:48;101003.84;;;2.66;100.00
7297;BME280;40758;54.038;11.684;2023-01-31T01:17:16;101016.97;;;2.69;100.00
7297;BME280;40758;54.038;11.684;2023-01-31T01:19:44;100996.91;;;2.64;100.00
7297;BME280;40758;54.038;11.684;2023-01-31T01:22:13;101018.47;;;2.56;100.00
7297;BME280;40758;54.038;11.684;2023-01-31T01:24:42;101017.09;;;2.66;100.00
7297;BME280;40758;54.038;11.684;2023-01-31T01:27:12;101028.75;;;2.64;100.00
7297;BME280;40758;54.038;11.684;2023-01-31T01:29:41;101023.72;;;2.76;100.00
7297;BME280;40758;54.038;11.684;2023-01-31T01:32:10;101026.22;;;2.79;100.00
7297;BME280;40758;54.038;11.684;2023-01-31T01:34:38;101016.81;;;2.72;100.00
7297;BME280;40758;54.038;11.684;2023-01-31T01:37:07;101033.41;;;2.77;100.00
7297;BME280;40758;54.038;11.684;2023-01-31T01:39:38;101030.47;;;2.83;100.00
7297;BME280;40758;54.038;11.684;2023-01-31T01:42:13;101037.75;;;2.78;100.00
7297;BME280;40758;54.038;11.684;2023-01-31T01:44:49;101048.66;;;2.72;100.00
7297;BME280;40758;54.038;11.684;2023-01-31T01:47:33;101052.00;;;2.77;100.00
7297;BME280;40758;54.038;11.684;2023-01-31T01:50:10;101060.00;;;2.76;100.00
7297;BME280;40758;54.038;11.684;2023-01-31T01:52:45;101061.31;;;2.86;100.00
7297;BME280;40758;54.038;11.684;2023-01-31T01:55:22;101055.34;;;2.81;100.00
7297;BME280;40758;54.038;11.684;2023-01-31T01:57:55;101060.88;;;2.76;100.00
7297;BME280;40758;54.038;11.684;2023-01-31T02:00:28;101067.50;;;2.66;100.00
7297;BME280;40758;54.038;11.684;2023-01-31T02:03:00;101073.63;;;2.68;100.00
7297;BME280;40758;54.038;11.684;2023-01-31T02:05:35;101083.59;;;2.63;100.00
7297;BME280;40758;54.038;11.684;2023-01-31T02:08:04;101084.66;;;2.59;100.00
7297;BME280;40758;54.038;11.684;2023-01-31T02:10:40;101094.47;;;2.57;100.00
7297;BME280;40758;54.038;11.684;2023-01-31T02:13:11;101086.78;;;2.51;100.00
7297;BME280;40758;54.038;11.684;2023-01-31T02:15:42;101090.34;;;2.50;100.00
7297;BME280;40758;54.038;11.684;2023-01-31T02:18:11;101104.28;;;2.55;100.00
7297;BME280;40758;54.038;11.684;2023-01-31T02:21:26;101101.78;;;2.52;100.00
7297;BME280;40758;54.038;11.684;2023-01-31T02:24:38;101089.66;;;2.47;100.00
7297;BME280;40758;54.038;11.684;2023-01-31T02:27:39;101089.50;;;2.50;100.00
7297;BME280;40758;54.038;11.684;2023-01-31T02:30:53;101084.91;;;2.53;100.00
7297;BME280;40758;54.038;11.684;2023-01-31T02:33:35;101098.84;;;2.38;100.00
7297;BME280;40758;54.038;11.684;2023-01-31T02:36:21;101108.53;;;2.39;100.00
7297;BME280;40758;54.038;11.684;2023-01-31T02:39:02;101104.16;;;2.38;100.00
7297;BME280;40758;54.038;11.684;2023-01-31T02:41:42;101110.38;;;2.37;100.00
7297;BME280;40758;54.038;11.684;2023-01-31T02:44:21;101109.47;;;2.38;100.00
7297;BME280;40758;54.038;11.684;2023-01-31T02:47:16;101114.88;;;2.35;100.00
7297;BME280;40758;54.038;11.684;2023-01-31T02:49:53;101112.91;;;2.40;100.00
7297;BME280;40758;54.038;11.684;2023-01-31T02:52:42;101113.25;;;2.32;100.00
7297;BME280;40758;54.038;11.684;2023-01-31T02:55:19;101120.06;;;2.38;100.00
7297;BME280;40758;54.038;11.684;2023-01-31T02:58:11;101119.53;;;2.30;100.00
7297;BME280;40758;54.038;11.684;2023-01-31T03:00:44;101107.66;;;2.38;100.00
7297;BME280;40758;54.038;11.684;2023-01-31T03:03:20;101121.13;;;2.34;100.00
7297;BME280;40758;54.038;11.684;2023-01-31T03:06:46;101117.25;;;2.41;100.00
7297;BME280;40758;54.038;11.684;2023-01-31T03:09:31;101110.31;;;2.38;100.00
7297;BME280;40758;54.038;11.684;2023-01-31T03:12:43;101117.34;;;2.39;100.00
7297;BME280;40758;54.038;11.684;2023-01-31T03:15:31;101118.13;;;2.41;100.00
7297;BME280;40758;54.038;11.684;2023-01-31T03:18:21;101112.81;;;2.41;100.00
7297;BME280;40758;54.038;11.684;2023-01-31T03:20:59;101113.97;;;2.36;100.00
7297;BME280;40758;54.038;11.684;2023-01-31T03:23:32;101115.31;;;2.46;100.00
7297;BME280;40758;54.038;11.684;2023-01-31T03:26:06;101122.84;;;2.35;100.00
7297;BME280;40758;54.038;11.684;2023-01-31T03:28:37;101133.59;;;2.32;100.00
7297;BME280;40758;54.038;11.684;2023-01-31T03:31:15;101129.22;;;2.31;100.00
7297;BME280;40758;54.038;11.684;2023-01-31T03:33:50;101125.84;;;2.27;100.00
7297;BME280;40758;54.038;11.684;2023-01-31T03:36:27;101113.84;;;2.39;100.00
7297;BME280;40758;54.038;11.684;2023-01-31T03:39:10;101131.75;;;2.34;100.00
7297;BME280;40758;54.038;11.684;2023-01-31T03:41:56;101135.06;;;2.39;100.00
7297;BME280;40758;54.038;11.684;2023-01-31T03:44:35;101129.00;;;2.35;100.00
7297;BME280;40758;54.038;11.684;2023-01-31T03:47:14;101132.19;;;2.43;100.00
7297;BME280;40758;54.038;11.684;2023-01-31T03:49:46;101119.66;;;2.47;100.00
7297;BME280;40758;54.038;11.684;2023-01-31T03:52:19;101122.19;;;2.50;100.00
7297;BME280;40758;54.038;11.684;2023-01-31T03:55:01;101128.94;;;2.57;100.00
7297;BME280;40758;54.038;11.684;2023-01-31T03:57:35;101126.94;;;2.62;100.00
7297;BME280;40758;54.038;11.684;2023-01-31T04:00:11;101131.28;;;2.65;100.00
7297;BME280;40758;54.038;11.684;2023-01-31T04:02:41;101111.03;;;2.62;100.00
7297;BME280;40758;54.038;11.684;2023-01-31T04:05:15;101111.63;;;2.69;100.00
7297;BME280;40758;54.038;11.684;2023-01-31T04:07:45;101096.69;;;2.66;100.00
7297;BME280;40758;54.038;11.684;2023-01-31T04:10:18;101107.47;;;2.63;100.00
7297;BME280;40758;54.038;11.684;2023-01-31T04:12:46;101112.09;;;2.58;100.00
7297;BME280;40758;54.038;11.684;2023-01-31T04:15:14;101119.25;;;2.56;100.00
7297;BME280;40758;54.038;11.684;2023-01-31T04:17:43;101125.22;;;2.61;100.00
7297;BME280;40758;54.038;11.684;2023-01-31T04:20:12;101132.03;;;2.67;100.00
7297;BME280;40758;54.038;11.684;2023-01-31T04:22:40;101122.94;;;2.72;100.00
7297;BME280;40758;54.038;11.684;2023-01-31T04:25:10;101126.28;;;2.77;100.00
7297;BME280;40758;54.038;11.684;2023-01-31T04:27:39;101127.00;;;2.81;100.00
7297;BME280;40758;54.038;11.684;2023-01-31T04:30:09;101129.44;;;2.85;100.00
7297;BME280;40758;54.038;11.684;2023-01-31T04:32:38;101122.28;;;2.88;100.00
7297;BME280;40758;54.038;11.684;2023-01-31T04:35:07;101130.03;;;2.92;100.00
7297;BME280;40758;54.038;11.684;2023-01-31T04:37:36;101114.97;;;2.93;100.00
7297;BME280;40758;54.038;11.684;2023-01-31T04:40:06;101119.19;;;2.97;100.00
7297;BME280;40758;54.038;11.684;2023-01-31T04:42:35;101129.81;;;2.97;100.00
7297;BME280;40758;54.038;11.684;2023-01-31T04:45:07;101131.69;;;2.95;100.00
7297;BME280;40758;54.038;11.684;2023-01-31T04:47:35;101136.94;;;2.96;100.00
7297;BME280;40758;54.038;11.684;2023-01-31T04:50:05;101133.31;;;2.97;100.00
7297;BME280;40758;54.038;11.684;2023-01-31T04:52:34;101135.09;;;2.97;100.00
7297;BME280;40758;54.038;11.684;2023-01-31T04:55:03;101135.63;;;3.05;100.00
7297;BME280;40758;54.038;11.684;2023-01-31T04:57:32;101132.06;;;3.06;100.00
7297;BME280;40758;54.038;11.684;2023-01-31T05:00:00;101129.47;;;3.04;100.00
7297;BME280;40758;54.038;11.684;2023-01-31T05:02:31;101136.56;;;3.04;100.00
7297;BME280;40758;54.038;11.684;2023-01-31T05:04:59;101119.00;;;3.01;100.00
7297;BME280;40758;54.038;11.684;2023-01-31T05:07:28;101130.31;;;3.05;100.00
7297;BME280;40758;54.038;11.684;2023-01-31T05:09:57;101130.31;;;3.05;100.00
7297;BME280;40758;54.038;11.684;2023-01-31T05:12:25;101131.19;;;3.05;100.00
7297;BME280;40758;54.038;11.684;2023-01-31T05:14:54;101130.59;;;2.99;100.00
7297;BME280;40758;54.038;11.684;2023-01-31T05:17:22;101126.38;;;2.95;100.00
7297;BME280;40758;54.038;11.684;2023-01-31T05:19:57;101131.69;;;2.95;100.00
7297;BME280;40758;54.038;11.684;2023-01-31T05:22:25;101135.97;;;2.97;100.00
7297;BME280;40758;54.038;11.684;2023-01-31T05:24:54;101135.31;;;2.92;100.00
7297;BME280;40758;54.038;11.684;2023-01-31T05:27:24;101127.31;;;2.94;100.00
7297;BME280;40758;54.038;11.684;2023-01-31T05:29:53;101138.84;;;2.93;100.00
7297;BME280;40758;54.038;11.684;2023-01-31T05:32:21;101130.59;;;2.99;100.00
7297;BME280;40758;54.038;11.684;2023-01-31T05:34:50;101123.66;;;2.96;100.00
7297;BME280;40758;54.038;11.684;2023-01-31T05:37:19;101126.44;;;2.93;100.00
7297;BME280;40758;54.038;11.684;2023-01-31T05:39:48;101121.25;;;2.90;100.00
7297;BME280;40758;54.038;11.684;2023-01-31T05:42:17;101115.13;;;2.90;100.00
7297;BME280;40758;54.038;11.684;2023-01-31T05:44:45;101120.44;;;2.90;100.00
7297;BME280;40758;54.038;11.684;2023-01-31T05:47:14;101118.53;;;2.92;100.00
7297;BME280;40758;54.038;11.684;2023-01-31T05:49:42;101112.31;;;2.93;100.00
7297;BME280;40758;54.038;11.684;2023-01-31T05:52:10;101108.66;;;2.95;100.00
7297;BME280;40758;54.038;11.684;2023-01-31T05:54:40;101113.09;;;2.95;100.00
7297;BME280;40758;54.038;11.684;2023-01-31T05:57:08;101107.81;;;2.95;100.00
7297;BME280;40758;54.038;11.684;2023-01-31T05:59:36;101113.22;;;2.92;100.00
7297;BME280;40758;54.038;11.684;2023-01-31T06:02:05;101097.19;;;2.95;100.00
7297;BME280;40758;54.038;11.684;2023-01-31T06:04:34;101105.91;;;2.97;100.00
7297;BME280;40758;54.038;11.684;2023-01-31T06:07:03;101109.53;;;2.96;100.00
7297;BME280;40758;54.038;11.684;2023-01-31T06:09:31;101114.84;;;2.96;100.00
7297;BME280;40758;54.038;11.684;2023-01-31T06:12:01;101104.34;;;2.93;100.00
7297;BME280;40758;54.038;11.684;2023-01-31T06:14:30;101109.81;;;2.90;100.00
7297;BME280;40758;54.038;11.684;2023-01-31T06:16:59;101112.53;;;2.88;100.00
7297;BME280;40758;54.038;11.684;2023-01-31T06:19:27;101109.06;;;2.86;100.00
7297;BME280;40758;54.038;11.684;2023-01-31T06:21:55;101115.13;;;2.90;100.00
7297;BME280;40758;54.038;11.684;2023-01-31T06:24:24;101119.09;;;2.79;100.00
7297;BME280;40758;54.038;11.684;2023-01-31T06:26:52;101117.53;;;2.75;100.00
7297;BME280;40758;54.038;11.684;2023-01-31T06:29:22;101118.50;;;2.73;100.00
7297;BME280;40758;54.038;11.684;2023-01-31T06:31:50;101115.19;;;2.68;100.00
7297;BME280;40758;54.038;11.684;2023-01-31T06:34:20;101119.38;;;2.73;100.00
7297;BME280;40758;54.038;11.684;2023-01-31T06:36:48;101100.94;;;2.70;100.00
7297;BME280;40758;54.038;11.684;2023-01-31T06:39:16;101101.81;;;2.71;100.00
7297;BME280;40758;54.038;11.684;2023-01-31T06:41:44;101101.59;;;2.75;100.00
7297;BME280;40758;54.038;11.684;2023-01-31T06:44:13;101107.72;;;2.77;100.00
7297;BME280;40758;54.038;11.684;2023-01-31T06:46:44;101114.72;;;2.78;100.00
7297;BME280;40758;54.038;11.684;2023-01-31T06:49:12;101110.28;;;2.79;100.00
7297;BME280;40758;54.038;11.684;2023-01-31T06:51:41;101099.47;;;2.83;100.00
7297;BME280;40758;54.038;11.684;2023-01-31T06:54:09;101102.91;;;2.85;100.00
7297;BME280;40758;54.038;11.684;2023-01-31T06:56:37;101111.66;;;2.88;100.00
7297;BME280;40758;54.038;11.684;2023-01-31T06:59:06;101104.50;;;2.90;100.00
7297;BME280;40758;54.038;11.684;2023-01-31T07:01:34;101101.84;;;2.90;100.00
7297;BME280;40758;54.038;11.684;2023-01-31T07:04:04;101107.81;;;2.95;100.00
7297;BME280;40758;54.038;11.684;2023-01-31T07:06:33;101107.66;;;2.98;100.00
7297;BME280;40758;54.038;11.684;2023-01-31T07:09:01;101111.22;;;2.97;100.00
7297;BME280;40758;54.038;11.684;2023-01-31T07:11:30;101108.44;;;3.00;100.00
7297;BME280;40758;54.038;11.684;2023-01-31T07:13:58;101112.94;;;2.98;100.00
7297;BME280;40758;54.038;11.684;2023-01-31T07:16:27;101104.00;;;3.00;100.00
7297;BME280;40758;54.038;11.684;2023-01-31T07:18:56;101113.59;;;3.03;100.00
7297;BME280;40758;54.038;11.684;2023-01-31T07:21:25;101105.16;;;2.95;100.00
7297;BME280;40758;54.038;11.684;2023-01-31T07:23:56;101100.59;;;2.97;100.00
7297;BME280;40758;54.038;11.684;2023-01-31T07:26:24;101098.91;;;2.96;100.00
7297;BME280;40758;54.038;11.684;2023-01-31T07:28:53;101101.19;;;3.03;100.00
7297;BME280;40758;54.038;11.684;2023-01-31T07:31:21;101091.16;;;3.10;100.00
7297;BME280;40758;54.038;11.684;2023-01-31T07:33:49;101085.72;;;3.13;100.00
7297;BME280;40758;54.038;11.684;2023-01-31T07:36:18;101083.69;;;3.18;100.00
7297;BME280;40758;54.038;11.684;2023-01-31T07:38:55;101087.91;;;3.22;100.00
7297;BME280;40758;54.038;11.684;2023-01-31T07:41:24;101084.97;;;3.28;100.00
7297;BME280;40758;54.038;11.684;2023-01-31T07:43:52;101071.84;;;3.25;100.00
7297;BME280;40758;54.038;11.684;2023-01-31T07:46:21;101073.44;;;3.29;100.00
7297;BME280;40758;54.038;11.684;2023-01-31T07:48:49;101071.34;;;3.36;100.00
7297;BME280;40758;54.038;11.684;2023-01-31T07:51:17;101063.53;;;3.33;100.00
7297;BME280;40758;54.038;11.684;2023-01-31T07:53:46;101058.28;;;3.31;100.00
7297;BME280;40758;54.038;11.684;2023-01-31T07:56:18;101051.88;;;3.35;100.00
7297;BME280;40758;54.038;11.684;2023-01-31T07:58:48;101045.56;;;3.38;100.00
7297;BME280;40758;54.038;11.684;2023-01-31T08:01:20;101043.78;;;3.38;100.00
7297;BME280;40758;54.038;11.684;2023-01-31T08:04:08;101034.88;;;3.39;100.00
7297;BME280;40758;54.038;11.684;2023-01-31T08:06:52;101040.91;;;3.43;100.00
7297;BME280;40758;54.038;11.684;2023-01-31T08:09:21;101039.03;;;3.45;100.00
7297;BME280;40758;54.038;11.684;2023-01-31T08:11:52;101033.16;;;3.38;100.00
7297;BME280;40758;54.038;11.684;2023-01-31T08:14:20;101023.59;;;3.34;100.00
7297;BME280;40758;54.038;11.684;2023-01-31T08:16:51;101028.28;;;3.29;100.00
7297;BME280;40758;54.038;11.684;2023-01-31T08:19:20;101019.88;;;3.38;100.00
7297;BME280;40758;54.038;11.684;2023-01-31T08:21:49;101010.03;;;3.40;100.00
7297;BME280;40758;54.038;11.684;2023-01-31T08:24:17;101004.72;;;3.40;100.00
7297;BME280;40758;54.038;11.684;2023-01-31T08:26:45;101006.13;;;3.47;100.00
7297;BME280;40758;54.038;11.684;2023-01-31T08:29:15;100993.47;;;3.52;100.00
7297;BME280;40758;54.038;11.684;2023-01-31T08:31:43;100985.38;;;3.55;100.00
7297;BME280;40758;54.038;11.684;2023-01-31T08:34:12;100982.53;;;3.58;100.00
7297;BME280;40758;54.038;11.684;2023-01-31T08:36:41;100976.09;;;3.64;100.00
7297;BME280;40758;54.038;11.684;2023-01-31T08:39:10;100968.81;;;3.67;100.00
7297;BME280;40758;54.038;11.684;2023-01-31T08:41:39;100961.75;;;3.66;100.00
7297;BME280;40758;54.038;11.684;2023-01-31T08:44:07;100964.44;;;3.66;100.00
7297;BME280;40758;54.038;11.684;2023-01-31T08:46:37;100945.22;;;3.61;100.00
7297;BME280;40758;54.038;11.684;2023-01-31T08:49:06;100953.78;;;3.66;100.00
7297;BME280;40758;54.038;11.684;2023-01-31T08:51:35;100954.53;;;3.70;100.00
7297;BME280;40758;54.038;11.684;2023-01-31T08:54:03;100946.63;;;3.69;100.00
7297;BME280;40758;54.038;11.684;2023-01-31T08:56:32;100950.81;;;3.73;100.00
7297;BME280;40758;54.038;11.684;2023-01-31T08:59:00;100940.25;;;3.71;100.00
7297;BME280;40758;54.038;11.684;2023-01-31T09:01:28;100939.72;;;3.82;100.00
7297;BME280;40758;54.038;11.684;2023-01-31T09:04:00;100934.97;;;3.88;100.00
7297;BME280;40758;54.038;11.684;2023-01-31T09:06:28;100929.06;;;3.99;100.00
7297;BME280;40758;54.038;11.684;2023-01-31T09:08:57;100926.16;;;4.03;100.00
7297;BME280;40758;54.038;11.684;2023-01-31T09:11:27;100914.88;;;4.16;100.00
7297;BME280;40758;54.038;11.684;2023-01-31T09:13:56;100917.59;;;4.14;100.00
7297;BME280;40758;54.038;11.684;2023-01-31T09:16:25;100884.34;;;4.07;100.00
7297;BME280;40758;54.038;11.684;2023-01-31T09:18:54;100896.06;;;4.03;100.00
7297;BME280;40758;54.038;11.684;2023-01-31T09:21:24;100890.91;;;4.00;100.00
7297;BME280;40758;54.038;11.684;2023-01-31T09:23:56;100888.06;;;4.03;100.00
7297;BME280;40758;54.038;11.684;2023-01-31T09:26:24;100902.94;;;4.07;100.00
7297;BME280;40758;54.038;11.684;2023-01-31T09:28:53;100896.50;;;4.11;100.00
7297;BME280;40758;54.038;11.684;2023-01-31T09:31:24;100879.97;;;4.06;100.00
7297;BME280;40758;54.038;11.684;2023-01-31T09:33:53;100876.44;;;4.05;100.00
7297;BME280;40758;54.038;11.684;2023-01-31T09:36:24;100868.00;;;3.97;100.00
7297;BME280;40758;54.038;11.684;2023-01-31T09:38:55;100875.53;;;3.89;100.00
7297;BME280;40758;54.038;11.684;2023-01-31T09:41:30;100866.06;;;3.84;100.00
7297;BME280;40758;54.038;11.684;2023-01-31T09:44:05;100856.88;;;3.74;100.00
7297;BME280;40758;54.038;11.684;2023-01-31T09:46:43;100864.53;;;3.80;100.00
7297;BME280;40758;54.038;11.684;2023-01-31T09:49:20;100857.25;;;3.83;100.00
7297;BME280;40758;54.038;11.684;2023-01-31T09:51:57;100844.28;;;3.77;100.00
7297;BME280;40758;54.038;11.684;2023-01-31T09:54:33;100848.72;;;3.77;100.00
7297;BME280;40758;54.038;11.684;2023-01-31T09:57:20;100837.03;;;3.81;100.00
7297;BME280;40758;54.038;11.684;2023-01-31T10:00:05;100833.44;;;3.82;100.00
7297;BME280;40758;54.038;11.684;2023-01-31T10:05:48;100819.69;;;3.74;100.00
7297;BME280;40758;54.038;11.684;2023-01-31T10:08:34;100819.50;;;3.77;100.00
7297;BME280;40758;54.038;11.684;2023-01-31T10:11:10;100820.28;;;3.79;100.00
7297;BME280;40758;54.038;11.684;2023-01-31T10:13:47;100818.81;;;3.73;100.00
7297;BME280;40758;54.038;11.684;2023-01-31T10:16:25;100809.84;;;3.76;100.00
7297;BME280;40758;54.038;11.684;2023-01-31T10:19:02;100799.44;;;3.71;100.00
7297;BME280;40758;54.038;11.684;2023-01-31T10:21:39;100799.03;;;3.79;100.00
7297;BME280;40758;54.038;11.684;2023-01-31T10:24:19;100786.88;;;3.75;100.00
7297;BME280;40758;54.038;11.684;2023-01-31T10:26:52;100781.53;;;3.75;100.00
7297;BME280;40758;54.038;11.684;2023-01-31T10:29:24;100778.88;;;3.75;100.00
7297;BME280;40758;54.038;11.684;2023-01-31T10:32:00;100770.31;;;3.70;100.00
7297;BME280;40758;54.038;11.684;2023-01-31T10:34:37;100755.06;;;3.73;100.00
7297;BME280;40758;54.038;11.684;2023-01-31T10:37:17;100768.53;;;3.70;100.00
7297;BME280;40758;54.038;11.684;2023-01-31T10:39:57;100751.97;;;3.81;100.00
7297;BME280;40758;54.038;11.684;2023-01-31T10:42:31;100751.03;;;3.82;100.00
7297;BME280;40758;54.038;11.684;2023-01-31T10:45:11;100742.97;;;3.83;100.00
7297;BME280;40758;54.038;11.684;2023-01-31T10:47:49;100733.38;;;3.81;100.00
7297;BME280;40758;54.038;11.684;2023-01-31T10:50:29;100722.47;;;3.85;100.00
7297;BME280;40758;54.038;11.684;2023-01-31T10:53:23;100726.34;;;3.80;100.00
7297;BME280;40758;54.038;11.684;2023-01-31T10:56:04;100722.41;;;3.87;100.00
7297;BME280;40758;54.038;11.684;2023-01-31T10:58:35;100711.59;;;3.90;100.00
7297;BME280;40758;54.038;11.684;2023-01-31T11:01:05;100713.50;;;3.88;100.00
7297;BME280;40758;54.038;11.684;2023-01-31T11:03:38;100711.78;;;3.87;100.00
7297;BME280;40758;54.038;11.684;2023-01-31T11:06:11;100711.94;;;3.84;100.00
7297;BME280;40758;54.038;11.684;2023-01-31T11:08:42;100694.44;;;3.80;100.00
7297;BME280;40758;54.038;11.684;2023-01-31T11:11:16;100685.53;;;3.81;100.00
7297;BME280;40758;54.038;11.684;2023-01-31T11:13:57;100674.66;;;3.85;100.00
7297;BME280;40758;54.038;11.684;2023-01-31T11:16:29;100675.59;;;3.84;100.00
7297;BME280;40758;54.038;11.684;2023-01-31T11:19:02;100670.69;;;3.92;100.00
7297;BME280;40758;54.038;11.684;2023-01-31T11:21:34;100660.94;;;3.93;100.00
7297;BME280;40758;54.038;11.684;2023-01-31T11:24:14;100662.38;;;3.98;100.00
7297;BME280;40758;54.038;11.684;2023-01-31T11:26:52;100663.59;;;3.93;100.00
7297;BME280;40758;54.038;11.684;2023-01-31T11:29:27;100642.69;;;3.87;100.00
7297;BME280;40758;54.038;11.684;2023-01-31T11:31:59;100634.63;;;3.88;100.00
7297;BME280;40758;54.038;11.684;2023-01-31T11:34:30;100647.66;;;3.93;100.00
7297;BME280;40758;54.038;11.684;2023-01-31T11:37:05;100638.81;;;3.92;100.00
7297;BME280;40758;54.038;11.684;2023-01-31T11:39:35;100626.97;;;3.98;100.00
7297;BME280;40758;54.038;11.684;2023-01-31T11:42:12;100606.47;;;4.00;100.00
7297;BME280;40758;54.038;11.684;2023-01-31T11:44:55;100616.16;;;4.01;100.00
7297;BME280;40758;54.038;11.684;2023-01-31T11:47:33;100606.28;;;4.03;100.00
7297;BME280;40758;54.038;11.684;2023-01-31T11:50:06;100605.53;;;4.01;100.00
7297;BME280;40758;54.038;11.684;2023-01-31T11:52:52;100611.53;;;4.04;100.00
7297;BME280;40758;54.038;11.684;2023-01-31T11:55:22;100618.28;;;4.10;100.00
7297;BME280;40758;54.038;11.684;2023-01-31T11:57:58;100614.69;;;4.11;100.00
7297;BME280;40758;54.038;11.684;2023-01-31T12:00:32;100607.47;;;4.13;100.00
7297;BME280;40758;54.038;11.684;2023-01-31T12:03:03;100586.47;;;4.08;100.00
7297;BME280;40758;54.038;11.684;2023-01-31T12:05:42;100592.56;;;4.11;100.00
7297;BME280;40758;54.038;11.684;2023-01-31T12:08:29;100589.63;;;4.15;100.00
7297;BME280;40758;54.038;11.684;2023-01-31T12:10:58;100570.06;;;4.16;100.00
7297;BME280;40758;54.038;11.684;2023-01-31T12:13:45;100558.47;;;4.17;100.00
7297;BME280;40758;54.038;11.684;2023-01-31T12:16:18;100551.38;;;4.18;100.00
7297;BME280;40758;54.038;11.684;2023-01-31T12:19:02;100549.94;;;4.26;100.00
7297;BME280;40758;54.038;11.684;2023-01-31T12:21:53;100528.66;;;4.26;100.00
7297;BME280;40758;54.038;11.684;2023-01-31T12:24:42;100532.88;;;4.30;100.00
7297;BME280;40758;54.038;11.684;2023-01-31T12:27:33;100522.53;;;4.26;100.00
7297;BME280;40758;54.038;11.684;2023-01-31T12:33:34;100542.81;;;4.27;100.00
7297;BME280;40758;54.038;11.684;2023-01-31T12:36:21;100541.41;;;4.35;100.00
7297;BME280;40758;54.038;11.684;2023-01-31T12:39:14;100542.19;;;4.37;100.00
7297;BME280;40758;54.038;11.684;2023-01-31T12:41:59;100524.88;;;4.44;100.00
7297;BME280;40758;54.038;11.684;2023-01-31T12:44:43;100526.59;;;4.45;100.00
7297;BME280;40758;54.038;11.684;2023-01-31T12:47:44;100522.22;;;4.44;100.00
7297;BME280;40758;54.038;11.684;2023-01-31T12:50:38;100511.22;;;4.51;100.00
7297;BME280;40758;54.038;11.684;2023-01-31T12:53:38;100514.63;;;4.53;100.00
7297;BME280;40758;54.038;11.684;2023-01-31T12:56:35;100506.75;;;4.51;100.00
7297;BME280;40758;54.038;11.684;2023-01-31T12:59:25;100491.38;;;4.56;100.00
7297;BME280;40758;54.038;11.684;2023-01-31T13:02:01;100497.56;;;4.57;100.00
7297;BME280;40758;54.038;11.684;2023-01-31T13:04:46;100491.09;;;4.61;100.00
7297;BME280;40758;54.038;11.684;2023-01-31T13:07:28;100480.06;;;4.67;100.00
7297;BME280;40758;54.038;11.684;2023-01-31T13:10:02;100472.25;;;4.64;100.00
7297;BME280;40758;54.038;11.684;2023-01-31T13:12:34;100460.66;;;4.65;100.00
7297;BME280;40758;54.038;11.684;2023-01-31T13:15:14;100470.28;;;4.67;100.00
7297;BME280;40758;54.038;11.684;2023-01-31T13:17:50;100462.84;;;4.72;100.00
7297;BME280;40758;54.038;11.684;2023-01-31T13:20:31;100457.13;;;4.78;100.00
7297;BME280;40758;54.038;11.684;2023-01-31T13:23:10;100451.72;;;4.80;100.00
7297;BME280;40758;54.038;11.684;2023-01-31T13:25:46;100442.78;;;4.81;100.00
7297;BME280;40758;54.038;11.684;2023-01-31T13:28:22;100449.63;;;4.85;100.00
7297;BME280;40758;54.038;11.684;2023-01-31T13:30:56;100438.75;;;4.88;100.00